Terminal Aerodrome Forecast
Issued by NWS

Current Version | Previous Version | Text Only | Print | Product List | Glossary Off
Versions: 1 2 3 4 5 6 7 8 9 10 11 12 13 14 15 16

000
FTUS41 KPBZ 182300
TAFHLG
TAF
KHLG 182328Z 1900/1924 26008KT P6SM OVC015
     FM190200 27008KT 4SM -SN OVC010
     FM190600 27008KT P6SM OVC015=

USA.gov is the U.S. government's official web portal to all federal, state and local government web resources and services.